Manor, TX (78653)

8:30 AM CDT on April 25, 2015 (GMT -0500)
Shadowglen | | Change Station
CLOSE
Current Station
Personal Weather Station
Location: Manor, TX
Elevation: 541 ft
Nearby Weather Stations

Elev 541 ft 30.36 °N, 97.54 °W | Updated 3 seconds ago

Partly Cloudy
Partly Cloudy
68.1 °F
Feels Like 68.1 °F
N
4.0
Wind Variable Wind from North
Gusts 4.0 mph

Today
High -- | Low -- °F
--% Chance of Precip.
Yesterday
High -- | Low -- °F
Precip. -- in
6:52 AM 8:04 PM
Waxing Crescent, 46% visible
Pressure 29.83 in
Visibility 9.0 miles
Clouds Clear
Dew Point 67 °F
Humidity 95%
Rainfall 0.02 in
Snow Depth Not available.
UV 1 out of 12
Pollen 8.50 out of 12
Air Quality Not available.
Flu Activity Local Activity
METAR KEDC 251315Z AUTO 22007KT 9SM CLR 20/20 A2983 RMK AO2

More Conditions Fewer Conditions

Pressure 29.83 in
Visibility 9.0 miles
Clouds Clear
Dew Point 67 °F
Humidity 95%
Rainfall 0.02 in
Snow Depth Not available.
UV 1 out of 12
Pollen 8.50 out of 12
Air Quality Not available.
Flu Activity Local Activity
METAR KEDC 251315Z AUTO 22007KT 9SM CLR 20/20 A2983 RMK AO2

More Conditions Fewer Conditions

10-Day Weather Forecast

Almanac

Astronomy

Apr. 25, 2015 Rise Set
Actual Time
Civil Twilight
Nautical Twilight
Astronomical Twilight
Moon
Length of Visible Light
Length of Day
Tomorrow will be .
, % of the Moon is Illuminated

Today's Extremes

State Highs State Lows

Community

WunderPhotos

Upload Photos

1,816,668 photos uploaded!

WunderBlogs® & News

Nearby

Air Quality

  Air Quality AQ Index Pollutant
Not available.

Snow Depth

Station Depth Elevation

Earthquake Activity

City Distance Mag. Time & Date
Minimum magnitude displayed is 2.5.

Coastal Water Temperatures

Place Temperature

Stations

Nearby Weather Stations

Station Location Temp. Windchill Dew Point Humidity Wind Precip. Elev Updated Type